Data for 08/05/2018

Time Sea-Level Adjusted Pressure Absolute Pressure Temperature Relative Humidity Dew Point   
(mb) (inHg) (mb) (inHg) (C) (F) (%) (C) (F)
00:05 1020 30.12 849 25.07 17.5 63.4 44 5.1 41.3
00:10 1019 30.09 848 25.04 15.6 60 49 4.9 40.9
00:15 1020 30.12 849 25.07 15.3 59.6 51 5.3 41.6
00:20 1020 30.12 849 25.07 15.5 59.8 50 5.1 41.1
00:25 1020 30.12 849 25.07 15.7 60.3 46 4.1 39.3
00:30 1020 30.12 849 25.07 15.8 60.4 50 5.6 42
00:35 1020 30.12 849 25.07 15.3 59.5 50 5 41
00:40 1020 30.12 849 25.07 15.3 59.6 48 4.5 40.1
00:45 1020 30.12 849 25.07 15.4 59.8 48 4.7 40.4
00:50 1020 30.12 849 25.07 15.3 59.6 48 4.5 40.1
00:55 1020 30.12 849 25.07 15.2 59.3 50 5 41
01:00 1020 30.12 849 25.07 14.8 58.6 52 5.1 41.1
01:05 1020 30.12 849 25.07 14.7 58.4 51 4.7 40.5
01:10 1020 30.12 849 25.07 14.8 58.6 50 4.6 40.3
01:15 1020 30.12 849 25.07 14.9 58.8 48 4.2 39.5
01:20 1020 30.12 849 25.07 15 58.9 48 4.2 39.6
01:25 1020 30.12 849 25.07 15 59 48 4.2 39.6
01:30 1019 30.09 849 25.07 15 58.9 48 4.1 39.3
01:35 1019 30.09 849 25.07 15 59 47 4 39.2
01:40 1019 30.09 849 25.07 14.9 58.9 48 4.2 39.6
01:45 1019 30.09 849 25.07 14.7 58.4 49 4.3 39.7
01:50 1019 30.09 849 25.07 14.5 58.2 50 4.4 39.9
01:55 1020 30.12 849 25.07 14.5 58.1 50 4.3 39.7
02:00 1020 30.12 849 25.07 14.7 58.5 49 4.1 39.5
02:05 1020 30.12 849 25.07 15 58.9 49 4.4 39.8
02:10 1020 30.12 849 25.07 14.9 58.8 49 4.5 40
02:15 1020 30.12 849 25.07 14.8 58.7 50 4.5 40
02:20 1020 30.12 849 25.07 14.8 58.6 50 4.5 40.1
02:25 1020 30.12 849 25.07 14.8 58.6 49 4.3 39.8
02:30 1020 30.12 849 25.07 14.9 58.9 49 4.3 39.8
02:35 1020 30.12 849 25.07 15 58.9 49 4.4 39.9
02:40 1020 30.12 849 25.07 14.9 58.8 48 4.1 39.5
02:45 1020 30.12 849 25.07 14.9 58.9 48 4.2 39.6
02:50 1020 30.12 849 25.07 15 59.1 47 4 39.2
02:55 1020 30.12 849 25.07 15.1 59.2 47 4 39.2
03:00 1020 30.12 849 25.07 15.1 59.1 48 4.1 39.4
03:05 1020 30.12 849 25.07 14.9 58.9 48 4.1 39.4
03:10 1020 30.12 849 25.07 14.9 58.8 48 4.1 39.4
03:15 1020 30.12 849 25.07 14.9 58.8 48 4.1 39.4
03:20 1020 30.12 849 25.07 14.8 58.6 49 4.2 39.5
03:25 1020 30.12 849 25.07 14.7 58.4 49 4 39.3
03:30 1020 30.12 849 25.07 14.7 58.4 49 4.1 39.3
03:35 1020 30.12 849 25.07 14.6 58.3 49 4 39.2
03:40 1020 30.12 849 25.07 14.6 58.2 49 4 39.1
03:45 1020 30.12 849 25.07 14.5 58.1 49 3.9 39.1
03:50 1020 30.12 849 25.07 14.4 57.9 49 4 39.2
03:55 1020 30.12 849 25.07 14.3 57.8 49 3.8 38.9
04:00 1020 30.12 849 25.07 14.4 57.9 49 3.8 38.9
04:05 1020 30.12 849 25.07 14.3 57.8 49 3.8 38.9
04:10 1020 30.12 849 25.07 14.3 57.7 49 3.8 38.8
04:15 1020 30.12 849 25.07 14.3 57.7 49 3.7 38.6
04:20 1020 30.12 849 25.07 14.3 57.8 49 3.8 38.9
04:25 1020 30.12 849 25.07 14.2 57.5 49 3.8 38.9
04:30 1020 30.12 849 25.07 14.1 57.4 50 3.9 39
04:35 1020 30.12 849 25.07 14.2 57.5 49 3.8 38.8
04:40 1020 30.12 849 25.07 14.1 57.4 50 3.8 38.9
04:45 1020 30.12 850 25.1 14.1 57.4 50 3.9 39
04:50 1020 30.12 850 25.1 14.2 57.5 50 3.8 38.9
04:55 1020 30.12 850 25.1 14.1 57.4 50 3.9 39.1
05:00 1020 30.12 850 25.1 14 57.1 51 4 39.2
05:05 1020 30.12 850 25.1 14 57.1 50 3.9 39
05:10 1020 30.12 850 25.1 13.9 57.1 51 4 39.1
05:15 1020 30.12 850 25.1 13.9 57 51 4.1 39.3
05:20 1020 30.12 850 25.1 13.9 56.9 51 4 39.3
05:25 1020 30.12 850 25.1 13.8 56.9 52 4.1 39.4
05:30 1020 30.12 850 25.1 13.8 56.8 52 4.1 39.4
05:35 1020 30.12 850 25.1 13.8 56.8 52 4.1 39.4
05:40 1021 30.15 850 25.1 13.8 56.8 52 4.2 39.5
05:45 1021 30.15 850 25.1 13.8 56.9 52 4.2 39.6
05:50 1021 30.15 850 25.1 13.8 56.8 52 4.3 39.8
05:55 1021 30.15 850 25.1 13.8 56.9 53 4.4 39.8
06:00 1021 30.15 850 25.1 13.8 56.9 53 4.4 40
06:05 1021 30.15 850 25.1 13.8 56.8 53 4.5 40.1
06:10 1021 30.15 850 25.1 13.8 56.9 54 4.6 40.3
06:15 1021 30.15 850 25.1 13.8 56.9 53 4.6 40.3
06:20 1021 30.15 850 25.1 13.9 56.9 54 4.7 40.5
06:25 1021 30.15 850 25.1 13.9 56.9 54 4.8 40.7
06:30 1021 30.15 850 25.1 13.9 56.9 54 4.8 40.6
06:35 1021 30.15 850 25.1 13.9 56.9 55 5 40.9
06:40 1021 30.15 850 25.1 13.8 56.8 54 4.8 40.7
06:45 1021 30.15 850 25.1 13.9 57.1 55 5 41
06:50 1021 30.15 850 25.1 14 57.1 55 5.1 41.1
06:55 1021 30.15 850 25.1 14.1 57.3 55 5.2 41.4
07:00 1021 30.15 850 25.1 14.2 57.5 54 5.1 41.2
07:05 1021 30.15 850 25.1 14.1 57.5 55 5.4 41.7
07:10 1021 30.15 850 25.1 14.1 57.4 56 5.5 42
07:15 1021 30.15 850 25.1 14.3 57.7 55 5.4 41.7
07:20 1021 30.15 850 25.1 14.3 57.8 55 5.4 41.8
07:25 1021 30.15 850 25.1 14.6 58.3 54 5.5 41.9
07:30 1021 30.15 850 25.1 14.8 58.7 54 5.6 42.1
07:35 1021 30.15 850 25.1 14.7 58.5 54 5.6 42.1
07:40 1021 30.15 850 25.1 14.8 58.7 54 5.6 42.1
07:45 1021 30.15 850 25.1 15.1 59.2 53 5.7 42.3
07:50 1021 30.15 851 25.13 15.4 59.6 51 5.4 41.7
07:55 1021 30.15 851 25.13 15.7 60.3 51 5.6 42.1
08:00 1021 30.15 851 25.13 16 60.7 50 5.6 42
08:05 1021 30.15 851 25.13 15.8 60.4 51 5.7 42.3
08:10 1021 30.15 851 25.13 16 60.8 51 6.1 42.9
08:15 1021 30.15 851 25.13 15.6 60.1 48 4.7 40.5
08:20 1021 30.15 851 25.13 15.1 59.2 49 4.7 40.4
08:25 1021 30.15 851 25.13 15 59 49 4.6 40.3
08:30 1022 30.18 851 25.13 15.4 59.6 48 4.4 40
08:35 1022 30.18 851 25.13 16.2 61.2 45 4.3 39.7
08:40 1022 30.18 851 25.13 16.9 62.5 45 5.1 41.3
08:45 1022 30.18 851 25.13 17 62.7 42 4 39.2
08:50 1022 30.18 851 25.13 17.8 64 41 4.7 40.4
08:55 1022 30.18 851 25.13 17.7 63.9 40 4.1 39.4
09:00 1022 30.18 851 25.13 17.8 64 42 4.7 40.5
09:05 1022 30.18 851 25.13 18 64.5 40 4.4 40
09:10 1021 30.15 851 25.13 18.6 65.6 38 4.3 39.8
09:15 1022 30.18 851 25.13 18.8 65.9 38 4.5 40.1
09:20 1022 30.18 851 25.13 18.7 65.7 39 4.8 40.6
09:25 1022 30.18 851 25.13 18.6 65.4 39 4.6 40.2
09:30 1022 30.18 851 25.13 18.4 65.1 43 5.6 42
09:35 1022 30.18 851 25.13 18.1 64.6 42 5 41
09:40 1022 30.18 851 25.13 18.1 64.6 40 4.5 40.1
09:45 1022 30.18 851 25.13 18.4 65 41 5 41.1
09:50 1022 30.18 851 25.13 18 64.3 42 5.1 41.2
09:55 1022 30.18 851 25.13 18.3 64.9 40 4.7 40.5
10:00 1022 30.18 851 25.13 18.6 65.5 40 4.9 40.9
10:05 1022 30.18 851 25.13 18 64.3 44 5.7 42.3
10:10 1022 30.18 851 25.13 17.2 62.9 44 4.9 40.8
10:15 1022 30.18 851 25.13 17.4 63.2 45 5.4 41.6
10:20 1022 30.18 851 25.13 17.7 63.9 42 4.8 40.7
10:25 1022 30.18 851 25.13 18.2 64.8 44 6 42.8
10:30 1022 30.18 851 25.13 17.5 63.6 44 5.3 41.6
10:35 1022 30.18 851 25.13 18 64.5 43 5.3 41.5
10:40 1022 30.18 851 25.13 18 64.5 41 4.7 40.5
10:45 1022 30.18 851 25.13 18.2 64.7 40 4.6 40.3
10:50 1022 30.18 851 25.13 19.1 66.4 39 4.9 40.8
10:55 1022 30.18 851 25.13 19.7 67.4 40 5.7 42.2
11:00 1022 30.18 851 25.13 19 66.1 41 5.4 41.8
11:05 1022 30.18 851 25.13 19.2 66.5 39 5.2 41.3
11:10 1022 30.18 851 25.13 19.6 67.2 39 5.5 42
11:15 1022 30.18 851 25.13 19.9 67.8 38 5.2 41.4
11:20 1022 30.18 851 25.13 19.8 67.6 39 5.4 41.7
11:25 1022 30.18 851 25.13 20 68 37 5.1 41.2
11:30 1022 30.18 851 25.13 20.4 68.8 38 5.7 42.2
11:35 1022 30.18 851 25.13 20.7 69.2 36 5.1 41.2
11:40 1021 30.15 851 25.13 21.5 70.6 33 4.8 40.6
11:45 1022 30.18 851 25.13 21.7 71 33 4.9 40.9
11:50 1022 30.18 851 25.13 20.8 69.5 37 5.8 42.4
11:55 1021 30.15 851 25.13 20.2 68.3 38 5.4 41.7
12:00 1021 30.15 851 25.13 20.2 68.4 36 5 40.9
12:05 1021 30.15 851 25.13 21 69.7 36 5.6 42.1
12:10 1021 30.15 851 25.13 21.2 70.1 35 5.2 41.4
12:15 1021 30.15 851 25.13 21.3 70.4 34 5 40.9
12:20 1021 30.15 851 25.13 21.8 71.2 33 5 40.9
12:25 1021 30.15 851 25.13 21.5 70.8 35 5.5 41.8
12:30 1021 30.15 851 25.13 21.5 70.6 34 5.1 41.1
12:35 1021 30.15 850 25.1 21.1 70 35 5.2 41.3
12:40 1021 30.15 850 25.1 20.7 69.2 35 5 40.9
12:45 1021 30.15 850 25.1 20.8 69.5 35 4.8 40.6
12:50 1021 30.15 850 25.1 21.1 70 34 5 41
12:55 1021 30.15 850 25.1 21.2 70.2 33 4.5 40.2
13:00 1021 30.15 850 25.1 21.3 70.3 34 4.9 40.9
13:05 1021 30.15 850 25.1 21.2 70.2 34 4.7 40.5
13:10 1021 30.15 850 25.1 21.1 69.9 33 4.3 39.8
13:15 1021 30.15 850 25.1 21.3 70.3 32 3.9 39
13:20 1021 30.15 850 25.1 21.3 70.4 32 4.3 39.7
13:25 1021 30.15 850 25.1 20.5 68.8 34 4.1 39.4
13:30 1021 30.15 850 25.1 20.5 68.9 33 3.8 38.9
13:35 1021 30.15 850 25.1 20.5 68.9 33 3.8 38.9
13:40 1021 30.15 850 25.1 20.6 69 34 4.1 39.4
13:45 1021 30.15 850 25.1 20.8 69.5 33 4 39.2
13:50 1021 30.15 850 25.1 21.3 70.4 31 3.9 39
13:55 1021 30.15 850 25.1 21 69.9 32 3.9 39
14:00 1021 30.15 850 25.1 20.2 68.4 35 4.5 40.2
14:05 1021 30.15 850 25.1 19.9 67.9 35 4 39.2
14:10 1021 30.15 850 25.1 20.1 68.2 34 4 39.3
14:15 1021 30.15 850 25.1 20.2 68.3 34 3.8 38.9
14:20 1021 30.15 850 25.1 20.2 68.4 33 3.4 38.2
14:25 1021 30.15 850 25.1 20.4 68.7 33 3.6 38.5
14:30 1021 30.15 850 25.1 20.9 69.7 30 3 37.3
14:35 1021 30.15 850 25.1 21.1 69.9 32 4 39.3
14:40 1021 30.15 850 25.1 21.3 70.4 30 3.3 37.9
14:45 1021 30.15 850 25.1 21.4 70.6 31 3.9 39.1
14:50 1021 30.15 850 25.1 21.6 70.9 30 3.3 37.9
14:55 1021 30.15 850 25.1 21.9 71.3 29 3.3 38
15:00 1021 30.15 850 25.1 21.8 71.2 29 3.1 37.6
15:05 1021 30.15 850 25.1 22.7 72.8 28 3.3 37.9
15:10 1021 30.15 850 25.1 22.9 73.1 29 4.3 39.7
15:15 1021 30.15 850 25.1 23.2 73.8 28 3.7 38.6
15:20 1021 30.15 850 25.1 23.8 74.8 27 3.9 39
15:25 1021 30.15 850 25.1 23.1 73.6 28 3.8 38.9
15:30 1021 30.15 850 25.1 23.4 74.1 26 3.2 37.8
15:35 1021 30.15 850 25.1 24 75.2 26 3.6 38.5
15:40 1021 30.15 850 25.1 24.2 75.5 26 3.8 38.8
15:45 1021 30.15 850 25.1 23.7 74.6 28 4.1 39.3
15:50 1021 30.15 850 25.1 22.8 73.1 30 4.7 40.4
15:55 1021 30.15 850 25.1 21.8 71.2 31 4.1 39.4
16:00 1021 30.15 850 25.1 21.3 70.3 31 3.5 38.3
16:05 1021 30.15 850 25.1 21.2 70.1 32 4.1 39.3
16:10 1021 30.15 850 25.1 21.4 70.5 31 3.9 39.1
16:15 1022 30.18 851 25.13 20.9 69.7 32 3.7 38.6
16:20 1022 30.18 851 25.13 19 66.2 41 5.5 41.8
16:25 1022 30.18 851 25.13 17.3 63.1 52 7.4 45.4
16:30 1023 30.21 852 25.16 16.2 61.1 64 9.5 49.1
16:35 1023 30.21 852 25.16 14.6 58.2 73 9.9 49.8
16:40 1023 30.21 852 25.16 13.6 56.4 71 8.4 47.1
16:45 1023 30.21 853 25.19 13.4 56 74 8.8 47.8
16:50 1024 30.24 853 25.19 13.1 55.5 77 9.2 48.5
16:55 1024 30.24 853 25.19 13.3 56 70 8 46.3
17:00 1024 30.24 853 25.19 13.5 56.4 65 7.2 45
17:05 1024 30.24 853 25.19 13.7 56.7 67 7.7 45.8
17:10 1024 30.24 854 25.22 13.4 56 73 8.6 47.4
17:15 1024 30.24 854 25.22 12.9 55.2 68 7.2 45
17:20 1024 30.24 853 25.19 12.8 55.1 70 7.5 45.6
17:25 1024 30.24 853 25.19 12.8 55.1 69 7.4 45.3
17:30 1024 30.24 853 25.19 12.8 55 71 7.7 45.8
17:35 1024 30.24 853 25.19 12.6 54.7 69 7.2 44.9
17:40 1024 30.24 853 25.19 12.7 54.8 69 7.2 45
17:45 1024 30.24 853 25.19 12.7 54.9 70 7.5 45.5
17:50 1024 30.24 853 25.19 12.6 54.7 75 8.3 46.9
17:55 1024 30.24 853 25.19 12.3 54.2 75 8 46.5
18:00 1024 30.24 853 25.19 12.3 54.2 76 8.2 46.7
18:05 1024 30.24 853 25.19 12.3 54.2 76 8.2 46.7
18:10 1024 30.24 853 25.19 12.6 54.6 72 7.6 45.7
18:15 1024 30.24 853 25.19 12.7 54.9 71 7.7 45.8
18:20 1024 30.24 853 25.19 12.7 54.9 71 7.7 45.9
18:25 1024 30.24 853 25.19 12.7 54.9 72 7.9 46.2
18:30 1024 30.24 854 25.22 12.8 55 72 7.9 46.2
18:35 1024 30.24 854 25.22 12.9 55.1 70 7.7 45.8
18:40 1024 30.24 853 25.19 12.9 55.2 70 7.7 45.8
18:45 1024 30.24 854 25.22 12.8 55.1 67 6.8 44.3
18:50 1024 30.24 854 25.22 12.9 55.1 67 6.9 44.3
18:55 1025 30.27 854 25.22 13 55.3 66 6.9 44.3
19:00 1025 30.27 854 25.22 12.9 55.3 67 7 44.5
19:05 1025 30.27 854 25.22 12.9 55.3 64 6.3 43.4
19:10 1025 30.27 854 25.22 13 55.4 66 6.9 44.4
19:15 1025 30.27 854 25.22 12.9 55.1 68 7.1 44.8
19:20 1025 30.27 854 25.22 12.7 54.8 69 7.2 45
19:25 1025 30.27 854 25.22 12.6 54.6 69 7 44.6
19:30 1025 30.27 854 25.22 12.5 54.6 70 7.2 44.9
19:35 1025 30.27 854 25.22 12.4 54.4 70 7.1 44.9
19:40 1025 30.27 854 25.22 12.3 54.2 69 6.9 44.5
19:45 1025 30.27 854 25.22 12.3 54.1 70 7 44.6
19:50 1025 30.27 854 25.22 12.2 53.9 71 7 44.7
19:55 1025 30.27 854 25.22 12.1 53.7 71 7 44.6
20:00 1025 30.27 854 25.22 12 53.5 72 7.1 44.8
20:05 1025 30.27 854 25.22 11.8 53.3 72 7 44.6
20:10 1025 30.27 854 25.22 11.7 53.1 73 7 44.6
20:15 1025 30.27 854 25.22 11.7 53 73 7 44.5
20:20 1025 30.27 854 25.22 11.5 52.8 74 7 44.6
20:25 1025 30.27 854 25.22 11.4 52.5 74 6.9 44.4
20:30 1025 30.27 854 25.22 11.4 52.5 73 6.8 44.3
20:35 1025 30.27 854 25.22 11.4 52.4 73 6.7 44.1
20:40 1025 30.27 854 25.22 11.3 52.3 73 6.7 44.1
20:45 1025 30.27 854 25.22 11.2 52.2 73 6.6 43.9
20:50 1025 30.27 854 25.22 11.2 52.2 74 6.7 44
20:55 1025 30.27 854 25.22 11.1 51.9 74 6.7 44.1
21:00 1025 30.27 854 25.22 10.9 51.7 76 6.8 44.3
21:05 1025 30.27 854 25.22 10.7 51.3 77 6.8 44.3
21:10 1025 30.27 854 25.22 10.6 51.1 77 6.7 44.1
21:15 1025 30.27 854 25.22 10.7 51.2 76 6.7 44.1
21:20 1025 30.27 854 25.22 10.7 51.2 76 6.7 44
21:25 1025 30.27 854 25.22 10.7 51.2 76 6.7 44
21:30 1025 30.27 854 25.22 10.7 51.2 76 6.6 43.9
21:35 1025 30.27 854 25.22 10.7 51.3 76 6.6 43.9
21:40 1025 30.27 854 25.22 10.7 51.3 74 6.3 43.4
21:45 1025 30.27 854 25.22 10.7 51.3 75 6.6 43.8
21:50 1025 30.27 854 25.22 10.6 51 76 6.5 43.6
21:55 1025 30.27 854 25.22 10.4 50.7 76 6.4 43.6
22:00 1025 30.27 854 25.22 10.3 50.5 76 6.3 43.4
22:05 1025 30.27 854 25.22 10.3 50.6 75 6.1 42.9
22:10 1025 30.27 854 25.22 10.5 50.8 74 6.1 43
22:15 1025 30.27 854 25.22 10.2 50.4 76 6.1 43.1
22:20 1025 30.27 854 25.22 10 50 76 6 42.8
22:25 1025 30.27 854 25.22 10 49.9 76 6 42.8
22:30 1025 30.27 854 25.22 9.9 49.8 76 5.9 42.7
22:35 1025 30.27 854 25.22 9.9 49.9 76 5.8 42.5
22:40 1025 30.27 854 25.22 10.1 50.1 75 5.9 42.6
22:45 1025 30.27 854 25.22 10.2 50.4 74 5.9 42.6
22:50 1025 30.27 854 25.22 10.2 50.4 75 5.9 42.7
22:55 1025 30.27 854 25.22 9.9 49.9 76 5.8 42.5
23:00 1025 30.27 854 25.22 9.6 49.4 77 5.8 42.5
23:05 1025 30.27 854 25.22 9.5 49.1 78 5.8 42.4
23:10 1025 30.27 854 25.22 9.3 48.8 78 5.7 42.3
23:15 1025 30.27 854 25.22 9.3 48.7 78 5.7 42.2
23:20 1025 30.27 854 25.22 9.2 48.6 78 5.6 42.1
23:25 1025 30.27 854 25.22 9.1 48.4 78 5.6 42
23:30 1025 30.27 854 25.22 9.1 48.4 78 5.4 41.7
23:35 1025 30.27 854 25.22 9.3 48.7 76 5.4 41.6
23:40 1025 30.27 854 25.22 9.4 48.9 77 5.6 42.1
23:45 1025 30.27 854 25.22 9.2 48.5 78 5.5 42
23:50 1025 30.27 854 25.22 9.2 48.5 77 5.3 41.6
23:55 1025 30.27 854 25.22 9.4 48.8 77 5.5 41.8
24:00 1025 30.27 854 25.22 9.4 49 77 5.5 42